Time;durP1;ratioP1;P1;durP2;ratioP2;P2;SDS_P1;SDS_P2;PMS_P1;PMS_P2;Temp;Humidity;BMP_temperature;BMP_pressure;BME280_temperature;BME280_humidity;BME280_pressure;Samples;Min_cycle;Max_cycle;Signal;HPM_P1;HPM_P2
2023/05/07 00:00:25;;;;;;;11.93;4.55;;;;;;;;;;5109289;28;20038;-79
2023/05/07 00:02:52;;;;;;;8.65;5.10;;;;;;;;;;5109123;28;20012;-81
2023/05/07 00:05:18;;;;;;;10.43;4.35;;;;;;;;;;5115644;28;20152;-80
2023/05/07 00:07:44;;;;;;;11.98;4.63;;;;;;;;;;5110532;28;20540;-82
2023/05/07 00:10:12;;;;;;;9.38;4.22;;;;;;;;;;5110391;28;20077;-80
2023/05/07 00:12:38;;;;;;;8.32;5.20;;;;;;;;;;5114194;28;20417;-79
2023/05/07 00:15:05;;;;;;;9.40;4.20;;;;;;;;;;5105135;28;20054;-80
2023/05/07 00:17:35;;;;;;;8.38;4.05;;;;;;;;;;5108127;28;20020;-81
2023/05/07 00:20:01;;;;;;;13.15;4.32;;;;;;;;;;5106237;28;20091;-81
2023/05/07 00:22:29;;;;;;;10.68;5.28;;;;;;;;;;5109554;28;20548;-79
2023/05/07 00:24:56;;;;;;;8.68;4.22;;;;;;;;;;5105155;28;20020;-80
2023/05/07 00:27:22;;;;;;;11.50;5.03;;;;;;;;;;5109850;28;20020;-80
2023/05/07 00:29:49;;;;;;;9.52;4.82;;;;;;;;;;5106934;28;20053;-79
2023/05/07 00:32:15;;;;;;;12.20;6.57;;;;;;;;;;5115158;28;20043;-79
2023/05/07 00:34:41;;;;;;;10.52;4.45;;;;;;;;;;5108849;28;20032;-80
2023/05/07 00:37:08;;;;;;;9.43;5.00;;;;;;;;;;5111023;28;20522;-80
2023/05/07 00:39:36;;;;;;;7.82;5.35;;;;;;;;;;5108966;28;20057;-78
2023/05/07 00:42:03;;;;;;;13.98;5.38;;;;;;;;;;5108140;27;20032;-80
2023/05/07 00:44:29;;;;;;;8.85;4.60;;;;;;;;;;5107110;27;20206;-80
2023/05/07 00:46:56;;;;;;;12.05;5.00;;;;;;;;;;5113395;28;20038;-80
2023/05/07 00:49:23;;;;;;;16.92;5.10;;;;;;;;;;5106766;28;20020;-82
2023/05/07 00:51:50;;;;;;;13.75;5.13;;;;;;;;;;5104885;28;20464;-80
2023/05/07 00:54:16;;;;;;;10.50;4.60;;;;;;;;;;5112575;28;20028;-79
2023/05/07 00:56:43;;;;;;;11.60;4.90;;;;;;;;;;5102062;28;20141;-79
2023/05/07 00:59:09;;;;;;;17.88;5.15;;;;;;;;;;5107710;28;20158;-78
2023/05/07 01:01:36;;;;;;;11.55;4.60;;;;;;;;;;5101670;28;20053;-79
2023/05/07 01:04:02;;;;;;;10.68;4.03;;;;;;;;;;5109020;28;20024;-80
2023/05/07 01:06:30;;;;;;;8.32;4.68;;;;;;;;;;5112872;28;20028;-79
2023/05/07 01:08:57;;;;;;;9.93;4.65;;;;;;;;;;5108420;28;20371;-79
2023/05/07 01:11:23;;;;;;;14.05;5.15;;;;;;;;;;5107003;28;20116;-80
2023/05/07 01:13:50;;;;;;;8.07;5.30;;;;;;;;;;5113767;28;20452;-79
2023/05/07 01:16:16;;;;;;;9.27;4.57;;;;;;;;;;5114695;28;20379;-79
2023/05/07 01:18:43;;;;;;;12.80;6.25;;;;;;;;;;5113759;27;20036;-79
2023/05/07 01:21:10;;;;;;;10.05;4.70;;;;;;;;;;5110263;28;20020;-79
2023/05/07 01:23:39;;;;;;;10.82;5.30;;;;;;;;;;5106882;28;20012;-79
2023/05/07 01:26:05;;;;;;;13.02;4.88;;;;;;;;;;5107503;27;20027;-79
2023/05/07 01:28:31;;;;;;;10.05;5.07;;;;;;;;;;5109792;28;20019;-79
2023/05/07 01:31:01;;;;;;;11.93;5.38;;;;;;;;;;5113254;28;20024;-79
2023/05/07 01:33:31;;;;;;;8.60;5.07;;;;;;;;;;5113251;28;20080;-79
2023/05/07 01:36:00;;;;;;;10.43;5.78;;;;;;;;;;5107899;28;20032;-80
2023/05/07 01:38:26;;;;;;;14.50;4.47;;;;;;;;;;5114208;28;20024;-79
2023/05/07 01:40:52;;;;;;;13.77;4.70;;;;;;;;;;5114723;28;20535;-80
2023/05/07 01:43:19;;;;;;;11.40;4.97;;;;;;;;;;5112996;28;20036;-80
2023/05/07 01:45:46;;;;;;;20.00;5.53;;;;;;;;;;5111887;28;20041;-80
2023/05/07 01:48:13;;;;;;;11.05;4.82;;;;;;;;;;5110253;28;20031;-80
2023/05/07 01:50:40;;;;;;;8.10;5.22;;;;;;;;;;5111682;28;20491;-80
2023/05/07 01:53:06;;;;;;;14.38;4.72;;;;;;;;;;5111825;28;20103;-80
2023/05/07 01:55:32;;;;;;;11.00;5.45;;;;;;;;;;5109550;28;20032;-79
2023/05/07 01:57:58;;;;;;;13.27;4.75;;;;;;;;;;5111019;28;20038;-80
2023/05/07 02:00:24;;;;;;;11.30;5.32;;;;;;;;;;5110975;28;20032;-80
2023/05/07 02:02:52;;;;;;;11.00;5.10;;;;;;;;;;5106957;28;20023;-81
2023/05/07 02:05:18;;;;;;;16.60;5.07;;;;;;;;;;5104742;28;20024;-81
2023/05/07 02:07:44;;;;;;;8.25;4.15;;;;;;;;;;5112064;27;20038;-79
2023/05/07 02:10:10;;;;;;;15.30;5.15;;;;;;;;;;5110877;28;20027;-80
2023/05/07 02:12:37;;;;;;;9.50;5.50;;;;;;;;;;5112634;28;20080;-80
2023/05/07 02:15:03;;;;;;;8.55;4.25;;;;;;;;;;5118147;28;20047;-80
2023/05/07 02:17:31;;;;;;;8.68;5.68;;;;;;;;;;5115402;28;20681;-83
2023/05/07 02:19:57;;;;;;;9.98;4.20;;;;;;;;;;5115538;28;20028;-80
2023/05/07 02:22:23;;;;;;;9.93;3.90;;;;;;;;;;5118496;28;20024;-81
2023/05/07 02:24:50;;;;;;;11.40;4.55;;;;;;;;;;5116207;28;20028;-79
2023/05/07 02:27:16;;;;;;;9.32;4.43;;;;;;;;;;5116121;28;20028;-80
2023/05/07 02:29:42;;;;;;;15.30;5.05;;;;;;;;;;5119093;28;20023;-79
2023/05/07 02:32:08;;;;;;;9.77;4.45;;;;;;;;;;5115646;28;20030;-80
2023/05/07 02:34:34;;;;;;;7.38;4.45;;;;;;;;;;5116535;28;20031;-80
2023/05/07 02:37:00;;;;;;;7.88;4.40;;;;;;;;;;5117484;28;20028;-82
2023/05/07 02:39:27;;;;;;;7.05;3.83;;;;;;;;;;5110945;28;20210;-80
2023/05/07 02:41:53;;;;;;;8.15;4.15;;;;;;;;;;5117306;28;20027;-80
2023/05/07 02:44:19;;;;;;;12.68;5.13;;;;;;;;;;5113209;28;20054;-80
2023/05/07 02:46:45;;;;;;;8.70;4.40;;;;;;;;;;5108092;28;20084;-79
2023/05/07 02:49:11;;;;;;;12.68;4.60;;;;;;;;;;5109715;28;20034;-80
2023/05/07 02:51:37;;;;;;;13.50;4.72;;;;;;;;;;5113772;28;20024;-80
2023/05/07 02:54:03;;;;;;;8.05;4.78;;;;;;;;;;5118258;28;20046;-80
2023/05/07 02:56:30;;;;;;;13.48;5.05;;;;;;;;;;5111315;28;20050;-80
2023/05/07 02:58:56;;;;;;;12.25;5.20;;;;;;;;;;5115532;28;20027;-80
2023/05/07 03:01:22;;;;;;;10.88;4.50;;;;;;;;;;5113424;28;20450;-80
2023/05/07 03:03:48;;;;;;;10.45;4.95;;;;;;;;;;5116303;28;20023;-79
2023/05/07 03:06:15;;;;;;;11.02;4.50;;;;;;;;;;5106634;28;20045;-80
2023/05/07 03:08:41;;;;;;;11.77;4.50;;;;;;;;;;5117971;28;20026;-80
2023/05/07 03:11:07;;;;;;;9.90;4.65;;;;;;;;;;5112548;28;20030;-80
2023/05/07 03:13:33;;;;;;;11.25;4.78;;;;;;;;;;5109635;28;20066;-80
2023/05/07 03:15:59;;;;;;;10.55;5.38;;;;;;;;;;5107804;28;20065;-80
2023/05/07 03:18:26;;;;;;;7.55;4.40;;;;;;;;;;5113348;28;20536;-80
2023/05/07 03:20:52;;;;;;;7.97;4.22;;;;;;;;;;5110461;28;20020;-80
2023/05/07 03:23:18;;;;;;;13.27;4.80;;;;;;;;;;5117691;28;20223;-80
2023/05/07 03:25:44;;;;;;;11.10;4.20;;;;;;;;;;5113444;28;20027;-79
2023/05/07 03:28:10;;;;;;;12.13;4.78;;;;;;;;;;5113927;28;20066;-81
2023/05/07 03:30:36;;;;;;;8.05;4.30;;;;;;;;;;5114070;28;20035;-80
2023/05/07 03:33:02;;;;;;;11.40;4.88;;;;;;;;;;5111344;28;20138;-80
2023/05/07 03:35:29;;;;;;;15.23;4.82;;;;;;;;;;5107188;28;20023;-80
2023/05/07 03:37:55;;;;;;;7.97;4.45;;;;;;;;;;5117004;28;20027;-80
2023/05/07 03:40:21;;;;;;;11.68;4.63;;;;;;;;;;5112050;28;20051;-80
2023/05/07 03:42:47;;;;;;;7.28;4.80;;;;;;;;;;5104765;28;20032;-79
2023/05/07 03:45:13;;;;;;;8.18;4.18;;;;;;;;;;5107992;28;20024;-79
2023/05/07 03:47:39;;;;;;;10.18;4.40;;;;;;;;;;5106913;28;20034;-81
2023/05/07 03:50:11;;;;;;;10.90;4.35;;;;;;;;;;5109574;28;20020;-79
2023/05/07 03:52:37;;;;;;;8.63;3.85;;;;;;;;;;5100152;28;20050;-80
2023/05/07 03:55:03;;;;;;;8.75;4.50;;;;;;;;;;5111532;28;20044;-80
2023/05/07 03:57:30;;;;;;;8.00;4.30;;;;;;;;;;5112750;28;20455;-80
2023/05/07 03:59:56;;;;;;;12.82;4.18;;;;;;;;;;5110109;28;20051;-80
2023/05/07 04:02:22;;;;;;;11.07;4.63;;;;;;;;;;5111938;27;20084;-79
2023/05/07 04:04:49;;;;;;;11.60;4.65;;;;;;;;;;5111169;28;20051;-80
2023/05/07 04:07:15;;;;;;;12.15;4.32;;;;;;;;;;5118300;27;20058;-80
2023/05/07 04:09:41;;;;;;;9.25;4.57;;;;;;;;;;5112429;28;20028;-80
2023/05/07 04:12:07;;;;;;;11.75;4.45;;;;;;;;;;5115316;28;20031;-80
2023/05/07 04:14:34;;;;;;;9.25;4.65;;;;;;;;;;5117839;27;20031;-78
2023/05/07 04:17:00;;;;;;;12.52;4.53;;;;;;;;;;5113099;28;20059;-79
2023/05/07 04:19:26;;;;;;;9.10;4.47;;;;;;;;;;5112098;28;20455;-80
2023/05/07 04:21:58;;;;;;;8.25;4.20;;;;;;;;;;5105854;28;20020;-80
2023/05/07 04:24:24;;;;;;;7.65;4.15;;;;;;;;;;5104035;28;20028;-80
2023/05/07 04:26:51;;;;;;;6.68;4.00;;;;;;;;;;5112659;28;20051;-80
2023/05/07 04:29:17;;;;;;;6.60;4.35;;;;;;;;;;5116990;28;20110;-81
2023/05/07 04:31:46;;;;;;;7.15;4.25;;;;;;;;;;5113681;28;20384;-80
2023/05/07 04:34:14;;;;;;;9.82;4.88;;;;;;;;;;5114696;28;20486;-81
2023/05/07 04:36:40;;;;;;;8.02;4.55;;;;;;;;;;5115905;28;20483;-80
2023/05/07 04:39:06;;;;;;;7.15;3.88;;;;;;;;;;5114765;28;20171;-80
2023/05/07 04:41:32;;;;;;;8.70;4.18;;;;;;;;;;5108810;28;20089;-80
2023/05/07 04:43:59;;;;;;;9.93;4.43;;;;;;;;;;5111248;27;20114;-80
2023/05/07 04:46:25;;;;;;;6.07;4.32;;;;;;;;;;5112018;27;20023;-80
2023/05/07 04:48:51;;;;;;;5.85;4.03;;;;;;;;;;5115156;28;20073;-80
2023/05/07 04:51:17;;;;;;;8.20;4.10;;;;;;;;;;5117376;27;20024;-80
2023/05/07 04:53:43;;;;;;;9.82;4.03;;;;;;;;;;5116986;28;20030;-79
2023/05/07 04:56:10;;;;;;;8.40;4.13;;;;;;;;;;5110691;28;20143;-78
2023/05/07 04:58:36;;;;;;;10.30;4.47;;;;;;;;;;5112200;28;20031;-81
2023/05/07 05:01:02;;;;;;;6.53;3.72;;;;;;;;;;5105597;28;20051;-80
2023/05/07 05:03:28;;;;;;;8.50;4.75;;;;;;;;;;5110242;28;20043;-80
2023/05/07 05:05:54;;;;;;;12.10;5.40;;;;;;;;;;5114876;28;20229;-80
2023/05/07 05:08:21;;;;;;;8.00;4.30;;;;;;;;;;5114427;28;20472;-80
2023/05/07 05:10:49;;;;;;;10.02;4.03;;;;;;;;;;5104372;27;20120;-81
2023/05/07 05:13:15;;;;;;;11.23;4.45;;;;;;;;;;5108103;27;20373;-80
2023/05/07 05:15:42;;;;;;;7.40;4.57;;;;;;;;;;5111025;28;20078;-79
2023/05/07 05:18:08;;;;;;;6.65;4.18;;;;;;;;;;5105905;28;20055;-80
2023/05/07 05:20:34;;;;;;;8.20;4.47;;;;;;;;;;5111341;28;20028;-80
2023/05/07 05:23:00;;;;;;;5.97;3.65;;;;;;;;;;5107064;28;20035;-80
2023/05/07 05:25:27;;;;;;;6.85;4.03;;;;;;;;;;5111786;28;20015;-80
2023/05/07 05:27:53;;;;;;;7.80;4.22;;;;;;;;;;5109972;28;20023;-80
2023/05/07 05:30:19;;;;;;;9.48;4.28;;;;;;;;;;5109612;28;20028;-79
2023/05/07 05:32:45;;;;;;;6.20;4.07;;;;;;;;;;5102877;28;20583;-80
2023/05/07 05:35:11;;;;;;;7.78;4.03;;;;;;;;;;5105988;28;20394;-80
2023/05/07 05:37:38;;;;;;;8.18;4.00;;;;;;;;;;5102666;28;20115;-80
2023/05/07 05:40:04;;;;;;;7.13;4.18;;;;;;;;;;5102522;28;20060;-79
2023/05/07 05:42:30;;;;;;;6.25;3.85;;;;;;;;;;5111132;28;20027;-80
2023/05/07 05:44:56;;;;;;;6.53;3.90;;;;;;;;;;5121619;27;20019;-78
2023/05/07 05:47:23;;;;;;;6.13;3.85;;;;;;;;;;5120677;28;20102;-79
2023/05/07 05:49:49;;;;;;;8.77;3.88;;;;;;;;;;5115877;28;20028;-80
2023/05/07 05:52:16;;;;;;;6.53;3.70;;;;;;;;;;5116348;28;20036;-79
2023/05/07 05:54:42;;;;;;;7.78;4.15;;;;;;;;;;5118497;27;20023;-79
2023/05/07 05:57:09;;;;;;;10.60;3.83;;;;;;;;;;5113031;28;20081;-79
2023/05/07 05:59:35;;;;;;;6.90;4.45;;;;;;;;;;5119019;27;20023;-80
2023/05/07 06:02:01;;;;;;;5.38;3.78;;;;;;;;;;5121459;27;20020;-80
2023/05/07 06:04:28;;;;;;;10.25;4.03;;;;;;;;;;5120790;27;20555;-80
2023/05/07 06:06:54;;;;;;;6.97;3.83;;;;;;;;;;5119735;28;20043;-80
2023/05/07 06:09:21;;;;;;;8.30;3.40;;;;;;;;;;5115690;28;20031;-80
2023/05/07 06:11:47;;;;;;;8.93;4.13;;;;;;;;;;5117193;28;20076;-79
2023/05/07 06:14:13;;;;;;;8.32;3.78;;;;;;;;;;5119582;27;20028;-80
2023/05/07 06:16:39;;;;;;;7.30;3.97;;;;;;;;;;5121044;28;20024;-80
2023/05/07 06:19:05;;;;;;;7.40;3.72;;;;;;;;;;5119564;27;20464;-81
2023/05/07 06:21:31;;;;;;;5.55;3.58;;;;;;;;;;5111146;27;20027;-81
2023/05/07 06:23:57;;;;;;;9.00;4.15;;;;;;;;;;5111396;28;20024;-81
2023/05/07 06:26:24;;;;;;;9.13;4.18;;;;;;;;;;5108588;28;20057;-80
2023/05/07 06:28:50;;;;;;;4.50;3.05;;;;;;;;;;5119654;28;20024;-80
2023/05/07 06:31:17;;;;;;;5.40;3.50;;;;;;;;;;5117621;28;20020;-81
2023/05/07 06:33:44;;;;;;;5.18;3.47;;;;;;;;;;5117035;27;20520;-81
2023/05/07 06:36:10;;;;;;;6.70;3.33;;;;;;;;;;5112935;28;20032;-80
2023/05/07 06:38:36;;;;;;;8.98;4.45;;;;;;;;;;5115683;28;20024;-80
2023/05/07 06:41:02;;;;;;;7.45;3.00;;;;;;;;;;5120469;28;20475;-80
2023/05/07 06:43:29;;;;;;;5.65;3.45;;;;;;;;;;5113618;28;20532;-81
2023/05/07 06:45:55;;;;;;;4.40;3.20;;;;;;;;;;5113709;27;20042;-80
2023/05/07 06:48:21;;;;;;;8.55;3.63;;;;;;;;;;5118845;27;20023;-80
2023/05/07 06:50:47;;;;;;;4.25;3.20;;;;;;;;;;5115227;28;20031;-80
2023/05/07 06:53:13;;;;;;;7.22;3.40;;;;;;;;;;5107848;28;20024;-78
2023/05/07 06:55:39;;;;;;;5.47;3.03;;;;;;;;;;5113430;28;20034;-80
2023/05/07 06:58:05;;;;;;;5.35;3.15;;;;;;;;;;5102113;28;20036;-78
2023/05/07 07:00:32;;;;;;;6.35;3.10;;;;;;;;;;5111950;28;20016;-81
2023/05/07 07:02:59;;;;;;;5.72;2.88;;;;;;;;;;5113542;28;20032;-80
2023/05/07 07:05:25;;;;;;;5.47;3.10;;;;;;;;;;5108818;28;20028;-80
2023/05/07 07:07:54;;;;;;;6.20;3.83;;;;;;;;;;5105591;28;20035;-80
2023/05/07 07:10:21;;;;;;;5.00;3.35;;;;;;;;;;5110307;28;20024;-79
2023/05/07 07:12:47;;;;;;;5.70;3.08;;;;;;;;;;5111507;28;20035;-81
2023/05/07 07:15:14;;;;;;;5.55;3.13;;;;;;;;;;5110128;28;20561;-79
2023/05/07 07:17:40;;;;;;;5.75;3.17;;;;;;;;;;5108681;28;20030;-79
2023/05/07 07:20:07;;;;;;;5.75;3.38;;;;;;;;;;5115560;28;20024;-79
2023/05/07 07:22:33;;;;;;;4.95;2.90;;;;;;;;;;5106600;27;20050;-80
2023/05/07 07:24:59;;;;;;;7.10;3.10;;;;;;;;;;5111610;28;20479;-79
2023/05/07 07:27:25;;;;;;;7.25;3.40;;;;;;;;;;5106908;28;20052;-79
2023/05/07 07:29:51;;;;;;;5.05;2.88;;;;;;;;;;5110258;28;20072;-81
2023/05/07 07:32:19;;;;;;;7.05;2.67;;;;;;;;;;5113272;28;20465;-81
2023/05/07 07:34:45;;;;;;;4.53;2.88;;;;;;;;;;5111323;28;20050;-83
2023/05/07 07:37:11;;;;;;;3.92;2.65;;;;;;;;;;5108724;27;20046;-82
2023/05/07 07:39:37;;;;;;;4.18;2.67;;;;;;;;;;5108370;28;20435;-80
2023/05/07 07:42:03;;;;;;;3.30;2.60;;;;;;;;;;5115652;28;20058;-79
2023/05/07 07:44:30;;;;;;;3.95;2.60;;;;;;;;;;5108184;28;20050;-79
2023/05/07 07:46:56;;;;;;;3.13;2.60;;;;;;;;;;5110348;28;20036;-81
2023/05/07 07:49:23;;;;;;;4.82;2.33;;;;;;;;;;5116138;28;20028;-86
2023/05/07 07:51:51;;;;;;;4.90;2.40;;;;;;;;;;5109934;28;20031;-81
2023/05/07 07:54:17;;;;;;;2.67;2.22;;;;;;;;;;5112468;28;20040;-81
2023/05/07 07:56:43;;;;;;;4.00;2.30;;;;;;;;;;5109838;27;20046;-78
2023/05/07 07:59:09;;;;;;;4.20;2.40;;;;;;;;;;5110978;28;20124;-80
2023/05/07 08:01:35;;;;;;;5.15;2.50;;;;;;;;;;5100386;28;20066;-80
2023/05/07 08:04:03;;;;;;;4.88;2.10;;;;;;;;;;5107726;27;20084;-80
2023/05/07 08:06:30;;;;;;;2.88;2.13;;;;;;;;;;5099772;27;20055;-80
2023/05/07 08:08:56;;;;;;;5.55;2.33;;;;;;;;;;5105561;28;20021;-81
2023/05/07 08:11:23;;;;;;;5.10;2.67;;;;;;;;;;5102227;28;20047;-80
2023/05/07 08:13:49;;;;;;;2.75;2.05;;;;;;;;;;5101066;28;20462;-82
2023/05/07 08:18:53;;;;;;;4.25;2.20;;;;;;;;;;5095740;28;20598;-77
2023/05/07 08:21:20;;;;;;;2.78;2.28;;;;;;;;;;5104191;28;20024;-80
2023/05/07 08:23:46;;;;;;;4.05;2.50;;;;;;;;;;5101494;28;20035;-78
2023/05/07 08:26:18;;;;;;;5.45;2.65;;;;;;;;;;5096414;28;20031;-76
2023/05/07 08:28:44;;;;;;;3.50;2.80;;;;;;;;;;5085825;28;20081;-79
2023/05/07 08:31:10;;;;;;;2.92;2.40;;;;;;;;;;5086908;28;20508;-78
2023/05/07 08:33:38;;;;;;;3.53;2.75;;;;;;;;;;5090948;28;20069;-78
2023/05/07 08:36:04;;;;;;;3.10;2.28;;;;;;;;;;5090659;28;20161;-79
2023/05/07 08:38:30;;;;;;;4.22;2.88;;;;;;;;;;5086914;28;20033;-78
2023/05/07 08:40:56;;;;;;;3.47;2.65;;;;;;;;;;5089640;28;20056;-78
2023/05/07 08:43:24;;;;;;;5.47;2.80;;;;;;;;;;5088318;28;20031;-78
2023/05/07 08:45:54;;;;;;;4.30;2.50;;;;;;;;;;5089843;28;20423;-77
2023/05/07 08:48:22;;;;;;;5.60;2.50;;;;;;;;;;5089459;28;20206;-77
2023/05/07 08:50:48;;;;;;;7.22;3.75;;;;;;;;;;5093305;28;20472;-80
2023/05/07 08:53:16;;;;;;;4.07;2.38;;;;;;;;;;5090639;28;20474;-78
2023/05/07 08:55:42;;;;;;;4.35;2.50;;;;;;;;;;5090189;28;20028;-77
2023/05/07 08:58:08;;;;;;;3.38;2.40;;;;;;;;;;5091921;28;20128;-77
2023/05/07 09:00:34;;;;;;;3.50;2.50;;;;;;;;;;5112861;28;20028;-80
2023/05/07 09:03:01;;;;;;;3.78;2.55;;;;;;;;;;5102652;28;20089;-78
2023/05/07 09:05:27;;;;;;;3.58;2.80;;;;;;;;;;5088113;28;20047;-78
2023/05/07 09:07:55;;;;;;;5.60;2.95;;;;;;;;;;5093419;28;20301;-78
2023/05/07 09:10:21;;;;;;;5.30;2.97;;;;;;;;;;5087936;28;20028;-77
2023/05/07 09:12:47;;;;;;;3.75;2.40;;;;;;;;;;5096174;28;20052;-79
2023/05/07 09:15:14;;;;;;;4.55;2.40;;;;;;;;;;5094556;28;20026;-79
2023/05/07 09:17:42;;;;;;;5.63;3.00;;;;;;;;;;5097098;28;20039;-79
2023/05/07 09:20:08;;;;;;;4.60;2.88;;;;;;;;;;5095072;28;20440;-79
2023/05/07 09:22:36;;;;;;;2.97;2.30;;;;;;;;;;5104166;28;20024;-78
2023/05/07 09:25:02;;;;;;;3.70;2.47;;;;;;;;;;5103816;28;20020;-79
2023/05/07 09:27:29;;;;;;;4.50;2.33;;;;;;;;;;5095443;28;20117;-78
2023/05/07 09:29:55;;;;;;;3.55;2.30;;;;;;;;;;5102245;28;20050;-77
2023/05/07 09:32:22;;;;;;;4.30;2.92;;;;;;;;;;5103426;28;20496;-77
2023/05/07 09:34:48;;;;;;;7.35;3.97;;;;;;;;;;5098075;28;20028;-78
2023/05/07 09:37:14;;;;;;;3.55;2.30;;;;;;;;;;5107066;28;20024;-78
2023/05/07 09:39:44;;;;;;;4.80;2.22;;;;;;;;;;5108517;28;20071;-79
2023/05/07 09:42:11;;;;;;;3.75;2.17;;;;;;;;;;5102514;28;20044;-78
2023/05/07 09:44:38;;;;;;;5.05;2.30;;;;;;;;;;5093004;28;20043;-78
2023/05/07 09:47:08;;;;;;;4.57;2.20;;;;;;;;;;5105848;28;20028;-77
2023/05/07 09:49:35;;;;;;;4.40;2.47;;;;;;;;;;5095620;28;20020;-78
2023/05/07 09:52:02;;;;;;;3.08;2.10;;;;;;;;;;5096718;28;20020;-78
2023/05/07 09:54:30;;;;;;;3.70;2.40;;;;;;;;;;5105583;28;20062;-81
2023/05/07 09:56:57;;;;;;;3.13;2.28;;;;;;;;;;5106245;28;20053;-76
2023/05/07 09:59:23;;;;;;;2.30;2.05;;;;;;;;;;5108645;28;20036;-79
2023/05/07 10:01:49;;;;;;;3.92;2.38;;;;;;;;;;5109053;28;20062;-79
2023/05/07 10:04:15;;;;;;;3.75;2.20;;;;;;;;;;5105792;28;20470;-78
2023/05/07 10:06:43;;;;;;;2.38;2.17;;;;;;;;;;5098257;28;20024;-79
2023/05/07 10:09:11;;;;;;;2.67;1.80;;;;;;;;;;5112496;28;20020;-79
2023/05/07 10:11:37;;;;;;;2.35;2.00;;;;;;;;;;5112427;28;20016;-78
2023/05/07 10:14:05;;;;;;;3.45;2.28;;;;;;;;;;5112027;28;20043;-78
2023/05/07 10:16:38;;;;;;;2.10;1.80;;;;;;;;;;5109887;28;20028;-79
2023/05/07 10:19:04;;;;;;;3.33;1.83;;;;;;;;;;5112349;28;20030;-78
2023/05/07 10:21:34;;;;;;;3.50;2.17;;;;;;;;;;5113274;28;20016;-80
2023/05/07 10:24:05;;;;;;;5.55;2.28;;;;;;;;;;5100649;28;20024;-78
2023/05/07 10:26:33;;;;;;;2.85;2.00;;;;;;;;;;5104572;28;20012;-79
2023/05/07 10:29:02;;;;;;;5.00;2.47;;;;;;;;;;5112432;28;20036;-77
2023/05/07 10:32:07;;;;;;;4.47;2.00;;;;;;;;;;5113085;28;20032;-79
2023/05/07 10:34:35;;;;;;;2.45;2.22;;;;;;;;;;5071149;28;20036;-79
2023/05/07 10:37:02;;;;;;;3.47;1.92;;;;;;;;;;5071071;28;20033;-79
2023/05/07 10:39:28;;;;;;;2.78;2.17;;;;;;;;;;5081569;28;20024;-80
2023/05/07 10:41:55;;;;;;;3.83;2.35;;;;;;;;;;5113870;28;20028;-79
2023/05/07 10:44:30;;;;;;;3.55;1.77;;;;;;;;;;5114692;28;20042;-79
2023/05/07 10:47:08;;;;;;;2.42;1.80;;;;;;;;;;5110399;28;20032;-80
2023/05/07 10:49:35;;;;;;;3.05;2.00;;;;;;;;;;5109335;28;20411;-79
2023/05/07 10:52:16;;;;;;;5.63;2.28;;;;;;;;;;5111416;28;20080;-77
2023/05/07 10:54:46;;;;;;;3.17;2.10;;;;;;;;;;5110962;28;20051;-77
2023/05/07 10:57:27;;;;;;;3.13;2.00;;;;;;;;;;5109655;28;20026;-77
2023/05/07 10:59:54;;;;;;;4.00;2.10;;;;;;;;;;5097519;28;20021;-78
2023/05/07 11:02:20;;;;;;;2.78;2.30;;;;;;;;;;5090888;28;20028;-77
2023/05/07 11:05:06;;;;;;;2.45;1.95;;;;;;;;;;5096156;28;20023;-77
2023/05/07 11:07:32;;;;;;;3.20;2.30;;;;;;;;;;5090707;28;20035;-77
2023/05/07 11:10:01;;;;;;;2.58;1.73;;;;;;;;;;5109999;28;20030;-77
2023/05/07 11:12:36;;;;;;;2.97;2.13;;;;;;;;;;5109617;28;20039;-77
2023/05/07 11:15:12;;;;;;;2.20;1.95;;;;;;;;;;5109878;28;20083;-77
2023/05/07 11:17:54;;;;;;;3.38;1.88;;;;;;;;;;5107750;28;20048;-77
2023/05/07 11:20:21;;;;;;;3.20;2.20;;;;;;;;;;5110686;28;20023;-79
2023/05/07 11:22:47;;;;;;;2.28;1.95;;;;;;;;;;5109906;28;20050;-75
2023/05/07 11:25:23;;;;;;;4.68;1.88;;;;;;;;;;5110985;28;20054;-75
2023/05/07 11:27:49;;;;;;;2.72;1.90;;;;;;;;;;5110328;28;20036;-77
2023/05/07 11:30:18;;;;;;;2.25;1.90;;;;;;;;;;5109308;28;20048;-76
2023/05/07 11:32:47;;;;;;;2.47;2.00;;;;;;;;;;5107222;28;20032;-75
2023/05/07 11:35:14;;;;;;;2.55;1.98;;;;;;;;;;5106021;28;20023;-75
2023/05/07 11:37:41;;;;;;;3.42;2.10;;;;;;;;;;5107804;28;20040;-77
2023/05/07 11:40:09;;;;;;;2.58;2.33;;;;;;;;;;5102651;28;20024;-76
2023/05/07 11:42:37;;;;;;;3.25;2.08;;;;;;;;;;5107894;28;20020;-75
2023/05/07 11:45:04;;;;;;;2.78;1.80;;;;;;;;;;5106860;28;20352;-82
2023/05/07 11:47:34;;;;;;;3.00;1.85;;;;;;;;;;5100931;28;20016;-81
2023/05/07 11:50:04;;;;;;;3.85;2.22;;;;;;;;;;5098676;28;20032;-79
2023/05/07 11:52:30;;;;;;;2.85;1.80;;;;;;;;;;5096847;28;20068;-83
2023/05/07 11:54:57;;;;;;;1.85;1.67;;;;;;;;;;5095006;28;20473;-80
2023/05/07 11:57:27;;;;;;;3.05;2.03;;;;;;;;;;5103299;28;20036;-78
2023/05/07 11:59:53;;;;;;;2.65;2.15;;;;;;;;;;5103787;28;20048;-81
2023/05/07 12:02:20;;;;;;;2.05;1.85;;;;;;;;;;5092028;28;20058;-77
2023/05/07 12:04:46;;;;;;;3.90;2.13;;;;;;;;;;5097704;28;20029;-78
2023/05/07 12:07:13;;;;;;;2.65;1.90;;;;;;;;;;5087373;28;20024;-78
2023/05/07 12:09:39;;;;;;;3.90;2.38;;;;;;;;;;5102430;28;20020;-77
2023/05/07 12:12:06;;;;;;;2.63;2.42;;;;;;;;;;5090458;28;20040;-77
2023/05/07 12:14:32;;;;;;;2.53;1.75;;;;;;;;;;5096594;28;20462;-82
2023/05/07 12:17:01;;;;;;;2.05;1.73;;;;;;;;;;5107324;28;20499;-83
2023/05/07 12:19:28;;;;;;;2.22;1.90;;;;;;;;;;5099420;28;20028;-85
2023/05/07 12:21:56;;;;;;;2.75;2.20;;;;;;;;;;5101524;28;20039;-82
2023/05/07 12:24:22;;;;;;;1.90;1.80;;;;;;;;;;5095966;28;20043;-86
2023/05/07 12:26:48;;;;;;;2.10;1.90;;;;;;;;;;5094690;28;20053;-82
2023/05/07 12:29:15;;;;;;;3.30;1.80;;;;;;;;;;5091315;28;20020;-82
2023/05/07 12:31:47;;;;;;;4.30;2.15;;;;;;;;;;5095182;28;20031;-86
2023/05/07 12:34:13;;;;;;;3.58;2.10;;;;;;;;;;5096604;28;20028;-85
2023/05/07 12:36:40;;;;;;;3.33;2.13;;;;;;;;;;5094692;28;20028;-86
2023/05/07 12:39:08;;;;;;;2.08;1.98;;;;;;;;;;5094299;28;20024;-80
2023/05/07 12:41:36;;;;;;;2.20;2.00;;;;;;;;;;5095413;28;20016;-81
2023/05/07 12:44:09;;;;;;;3.03;1.90;;;;;;;;;;5085805;28;20020;-85
2023/05/07 12:46:39;;;;;;;2.55;2.08;;;;;;;;;;5095546;28;20786;-84
2023/05/07 12:49:05;;;;;;;3.08;2.05;;;;;;;;;;5091518;28;20081;-83
2023/05/07 12:51:32;;;;;;;4.53;2.30;;;;;;;;;;5090419;28;20082;-82
2023/05/07 12:53:58;;;;;;;2.42;2.10;;;;;;;;;;5092515;28;20036;-83
2023/05/07 12:56:24;;;;;;;3.10;2.80;;;;;;;;;;5094938;28;20020;-80
2023/05/07 12:58:50;;;;;;;3.75;2.00;;;;;;;;;;5087946;28;20032;-83
2023/05/07 13:01:19;;;;;;;2.53;1.92;;;;;;;;;;5092627;28;20012;-85
2023/05/07 13:03:48;;;;;;;1.90;1.80;;;;;;;;;;5088041;28;20043;-81
2023/05/07 13:06:15;;;;;;;2.35;2.00;;;;;;;;;;5092761;28;20482;-84
2023/05/07 13:08:45;;;;;;;2.72;1.88;;;;;;;;;;5093791;28;20271;-86
2023/05/07 13:11:11;;;;;;;2.63;1.80;;;;;;;;;;5098055;28;20346;-82
2023/05/07 13:13:38;;;;;;;2.60;2.05;;;;;;;;;;5097772;28;20035;-82
2023/05/07 13:16:05;;;;;;;2.78;2.08;;;;;;;;;;5100194;28;20103;-83
2023/05/07 13:18:32;;;;;;;2.97;2.00;;;;;;;;;;5109057;28;20040;-82
2023/05/07 13:20:58;;;;;;;2.70;2.20;;;;;;;;;;5095972;28;20020;-83
2023/05/07 13:23:24;;;;;;;3.70;2.10;;;;;;;;;;5093760;28;20028;-81
2023/05/07 13:25:53;;;;;;;2.30;1.98;;;;;;;;;;5098452;28;20476;-82
2023/05/07 13:28:20;;;;;;;2.35;2.10;;;;;;;;;;5099530;28;20100;-81
2023/05/07 13:30:46;;;;;;;4.53;2.17;;;;;;;;;;5098360;28;20126;-79
2023/05/07 13:33:12;;;;;;;3.90;2.33;;;;;;;;;;5091647;28;20335;-84
2023/05/07 13:35:39;;;;;;;2.20;2.00;;;;;;;;;;5093322;28;20544;-82
2023/05/07 13:38:05;;;;;;;2.72;2.53;;;;;;;;;;5095717;28;20115;-79
2023/05/07 13:40:32;;;;;;;2.97;1.85;;;;;;;;;;5098288;28;20024;-75
2023/05/07 13:43:00;;;;;;;2.95;1.95;;;;;;;;;;5106607;28;20018;-75
2023/05/07 13:45:29;;;;;;;2.25;1.90;;;;;;;;;;5104352;28;20040;-81
2023/05/07 13:47:55;;;;;;;4.10;2.20;;;;;;;;;;5101736;28;20050;-79
2023/05/07 13:50:21;;;;;;;3.83;2.08;;;;;;;;;;5097065;28;20052;-81
2023/05/07 13:52:50;;;;;;;2.55;2.20;;;;;;;;;;5099206;28;20035;-83
2023/05/07 13:55:19;;;;;;;5.35;2.30;;;;;;;;;;5095727;28;20047;-83
2023/05/07 13:57:46;;;;;;;3.25;2.00;;;;;;;;;;5099398;28;20465;-79
2023/05/07 14:00:13;;;;;;;2.20;2.00;;;;;;;;;;5089225;28;20024;-81
2023/05/07 14:02:39;;;;;;;6.05;2.35;;;;;;;;;;5098238;28;20035;-86
2023/05/07 14:05:05;;;;;;;2.38;2.17;;;;;;;;;;5096248;28;20028;-79
2023/05/07 14:07:31;;;;;;;3.35;2.10;;;;;;;;;;5098848;28;20028;-83
2023/05/07 14:09:58;;;;;;;2.67;2.17;;;;;;;;;;5100420;28;20393;-77
2023/05/07 14:12:24;;;;;;;2.80;2.10;;;;;;;;;;5107372;28;20027;-78
2023/05/07 14:14:50;;;;;;;3.38;2.15;;;;;;;;;;5101354;28;20558;-80
2023/05/07 14:17:17;;;;;;;2.33;2.10;;;;;;;;;;5099761;28;20044;-83
2023/05/07 14:19:43;;;;;;;3.53;2.08;;;;;;;;;;5097655;28;20492;-82
2023/05/07 14:22:10;;;;;;;2.67;2.20;;;;;;;;;;5103197;28;20325;-81
2023/05/07 14:24:36;;;;;;;2.30;1.90;;;;;;;;;;5101079;28;20123;-81
2023/05/07 14:27:02;;;;;;;3.13;1.92;;;;;;;;;;5097891;28;20024;-84
2023/05/07 14:29:28;;;;;;;3.65;2.17;;;;;;;;;;5102970;28;20043;-80
2023/05/07 14:31:54;;;;;;;2.67;2.17;;;;;;;;;;5095765;28;20035;-82
2023/05/07 14:34:20;;;;;;;2.53;1.88;;;;;;;;;;5092955;28;20035;-82
2023/05/07 14:36:47;;;;;;;2.05;1.85;;;;;;;;;;5095400;28;20036;-83
2023/05/07 14:39:16;;;;;;;2.42;2.00;;;;;;;;;;5095787;28;20020;-88
2023/05/07 14:41:43;;;;;;;2.20;2.00;;;;;;;;;;5094062;28;20020;-83